SAS9156 LFBO-EKCH
Flight info
| Callsign | SAS9156 |
|---|---|
| Flight time | 2h 3m |
| Altitude | 40000 |
| Route | FISTO DCT PERIG DCT ADABI DCT BOKNO UN858 VANAD UN874 ARSAF DCT EGOZE DCT CMB DCT VEKIN DCT ADUTO N873 SPY/N0486F410 N873 JUIST DCT DOSUR P729 TUDLO |
| Aircraft | A359/H-SDE2E3GHIJ3J4J5LM1ORWXY/LB1D1 |
Departure
| Time | 2026-05-04 13:08 |
|---|---|
| Airport | Toulouse-Blagnac Airport (LFBO) |
Arrival
| Time | 2026-05-04 15:11 |
|---|---|
| Airport | Copenhagen Kastrup Airport (EKCH) |
| Time | Latitude | Longitude | Altitude | Speed | Heading |
|---|---|---|---|---|---|
| 2026-05-04 12:56 | 43.63327 | 1.35142 | 501 ft | 0 kts | 242° |
| 2026-05-04 12:58 | 43.63328 | 1.35144 | 501 ft | 2 kts | 241° |
| 2026-05-04 12:59 | 43.63335 | 1.35160 | 501 ft | 2 kts | 231° |
| 2026-05-04 12:59 | 43.63347 | 1.35175 | 501 ft | 2 kts | 212° |
| 2026-05-04 12:59 | 43.63362 | 1.35180 | 501 ft | 2 kts | 165° |
| 2026-05-04 12:59 | 43.63370 | 1.35176 | 501 ft | 0 kts | 143° |
| 2026-05-04 13:00 | 43.63357 | 1.35190 | 501 ft | 13 kts | 143° |
| 2026-05-04 13:01 | 43.63224 | 1.35328 | 501 ft | 34 kts | 143° |
| 2026-05-04 13:01 | 43.63121 | 1.35436 | 501 ft | 0 kts | 143° |
| 2026-05-04 13:01 | 43.63117 | 1.35440 | 501 ft | 7 kts | 143° |
| 2026-05-04 13:01 | 43.63012 | 1.35487 | 501 ft | 12 kts | 165° |
| 2026-05-04 13:02 | 43.62970 | 1.35597 | 501 ft | 16 kts | 88° |
| 2026-05-04 13:02 | 43.62963 | 1.35758 | 501 ft | 17 kts | 121° |
| 2026-05-04 13:02 | 43.62870 | 1.35887 | 501 ft | 21 kts | 143° |
| 2026-05-04 13:02 | 43.62736 | 1.36022 | 500 ft | 26 kts | 143° |
| 2026-05-04 13:03 | 43.62581 | 1.36186 | 500 ft | 30 kts | 141° |
| 2026-05-04 13:03 | 43.62404 | 1.36372 | 501 ft | 34 kts | 142° |
| 2026-05-04 13:03 | 43.62206 | 1.36577 | 500 ft | 37 kts | 143° |
| 2026-05-04 13:03 | 43.62057 | 1.36732 | 500 ft | 20 kts | 143° |
| 2026-05-04 13:04 | 43.61929 | 1.36865 | 500 ft | 26 kts | 143° |
| 2026-05-04 13:04 | 43.61833 | 1.37035 | 500 ft | 21 kts | 81° |
| 2026-05-04 13:04 | 43.61912 | 1.37212 | 500 ft | 24 kts | 54° |
| 2026-05-04 13:04 | 43.62019 | 1.37411 | 500 ft | 27 kts | 52° |
| 2026-05-04 13:05 | 43.62135 | 1.37619 | 501 ft | 14 kts | 52° |
| 2026-05-04 13:05 | 43.62149 | 1.37663 | 501 ft | 7 kts | 73° |
| 2026-05-04 13:05 | 43.62128 | 1.37739 | 501 ft | 11 kts | 134° |
| 2026-05-04 13:05 | 43.62055 | 1.37827 | 500 ft | 17 kts | 141° |
| 2026-05-04 13:06 | 43.61945 | 1.37938 | 500 ft | 22 kts | 144° |
| 2026-05-04 13:06 | 43.61808 | 1.38081 | 500 ft | 27 kts | 143° |
| 2026-05-04 13:06 | 43.61674 | 1.38163 | 500 ft | 19 kts | 198° |
| 2026-05-04 13:06 | 43.61593 | 1.38023 | 488 ft | 10 kts | 269° |
| 2026-05-04 13:07 | 43.61634 | 1.37947 | 487 ft | 13 kts | 322° |
| 2026-05-04 13:07 | 43.61761 | 1.37817 | 490 ft | 53 kts | 323° |
| 2026-05-04 13:07 | 43.62304 | 1.37252 | 500 ft | 139 kts | 323° |
| 2026-05-04 13:07 | 43.63238 | 1.36301 | 756 ft | 188 kts | 324° |
| 2026-05-04 13:08 | 43.64301 | 1.35184 | 1703 ft | 190 kts | 323° |
| 2026-05-04 13:08 | 43.65354 | 1.34021 | 2365 ft | 203 kts | 322° |
| 2026-05-04 13:08 | 43.66523 | 1.32718 | 2766 ft | 224 kts | 322° |
| 2026-05-04 13:08 | 43.67801 | 1.31303 | 3220 ft | 248 kts | 322° |
| 2026-05-04 13:09 | 43.69194 | 1.29768 | 3843 ft | 262 kts | 322° |
| 2026-05-04 13:09 | 43.70620 | 1.28204 | 4696 ft | 266 kts | 322° |
| 2026-05-04 13:09 | 43.72188 | 1.26801 | 5533 ft | 271 kts | 337° |
| 2026-05-04 13:09 | 43.74014 | 1.26036 | 6343 ft | 277 kts | 346° |
| 2026-05-04 13:10 | 43.75904 | 1.25435 | 7143 ft | 281 kts | 346° |
| 2026-05-04 13:10 | 43.77857 | 1.25039 | 8042 ft | 285 kts | 355° |
| 2026-05-04 13:10 | 43.79834 | 1.24939 | 8897 ft | 290 kts | 358° |
| 2026-05-04 13:10 | 43.81870 | 1.24889 | 9714 ft | 295 kts | 358° |
| 2026-05-04 13:11 | 43.83957 | 1.24833 | 10332 ft | 306 kts | 358° |
| 2026-05-04 13:11 | 43.86163 | 1.24767 | 10650 ft | 327 kts | 357° |
| 2026-05-04 13:11 | 43.87703 | 1.24717 | 10853 ft | 340 kts | 357° |
| 2026-05-04 13:11 | 43.90111 | 1.24638 | 11286 ft | 352 kts | 357° |
| 2026-05-04 13:12 | 43.93409 | 1.24529 | 12101 ft | 360 kts | 357° |
| 2026-05-04 13:12 | 43.95938 | 1.24444 | 12744 ft | 366 kts | 357° |
| 2026-05-04 13:12 | 43.97669 | 1.24386 | 13178 ft | 369 kts | 357° |
| 2026-05-04 13:12 | 44.00250 | 1.24299 | 13809 ft | 374 kts | 357° |
| 2026-05-04 13:13 | 44.02863 | 1.24210 | 14398 ft | 378 kts | 357° |
| 2026-05-04 13:13 | 44.05510 | 1.24120 | 14983 ft | 382 kts | 357° |
| 2026-05-04 13:13 | 44.08141 | 1.24030 | 15560 ft | 386 kts | 357° |
| 2026-05-04 13:13 | 44.10847 | 1.23937 | 16168 ft | 390 kts | 357° |
| 2026-05-04 13:14 | 44.13574 | 1.23844 | 16749 ft | 394 kts | 357° |
| 2026-05-04 13:14 | 44.16333 | 1.23750 | 17324 ft | 398 kts | 357° |
| 2026-05-04 13:14 | 44.19120 | 1.23655 | 17931 ft | 402 kts | 357° |
| 2026-05-04 13:14 | 44.21931 | 1.23558 | 18473 ft | 406 kts | 357° |
| 2026-05-04 13:15 | 44.24774 | 1.23461 | 18988 ft | 410 kts | 357° |
| 2026-05-04 13:15 | 44.27645 | 1.23362 | 19501 ft | 414 kts | 357° |
| 2026-05-04 13:15 | 44.30498 | 1.23263 | 20004 ft | 417 kts | 357° |
| 2026-05-04 13:15 | 44.33412 | 1.23163 | 20511 ft | 420 kts | 357° |
| 2026-05-04 13:16 | 44.36352 | 1.23061 | 21004 ft | 424 kts | 357° |
| 2026-05-04 13:16 | 44.39316 | 1.22958 | 21505 ft | 428 kts | 357° |
| 2026-05-04 13:16 | 44.42308 | 1.22854 | 22011 ft | 431 kts | 357° |
| 2026-05-04 13:16 | 44.45311 | 1.22658 | 22488 ft | 433 kts | 352° |
| 2026-05-04 13:17 | 44.48283 | 1.21940 | 22968 ft | 435 kts | 345° |
| 2026-05-04 13:17 | 44.51242 | 1.20928 | 23447 ft | 437 kts | 342° |
| 2026-05-04 13:17 | 44.54154 | 1.19797 | 23867 ft | 440 kts | 341° |
| 2026-05-04 13:17 | 44.57107 | 1.18595 | 24293 ft | 443 kts | 341° |
| 2026-05-04 13:18 | 44.60073 | 1.17380 | 24722 ft | 445 kts | 341° |
| 2026-05-04 13:18 | 44.63063 | 1.16166 | 25144 ft | 448 kts | 341° |
| 2026-05-04 13:18 | 44.66080 | 1.14959 | 25596 ft | 451 kts | 341° |
| 2026-05-04 13:18 | 44.69118 | 1.13757 | 26083 ft | 454 kts | 342° |
| 2026-05-04 13:19 | 44.72136 | 1.12570 | 26555 ft | 457 kts | 342° |
| 2026-05-04 13:19 | 44.75214 | 1.11364 | 27097 ft | 461 kts | 342° |
| 2026-05-04 13:19 | 44.78313 | 1.10151 | 27686 ft | 464 kts | 342° |
| 2026-05-04 13:19 | 44.81441 | 1.08924 | 28250 ft | 468 kts | 342° |
| 2026-05-04 13:20 | 44.84589 | 1.07686 | 28792 ft | 471 kts | 342° |
| 2026-05-04 13:20 | 44.87768 | 1.06434 | 29359 ft | 475 kts | 342° |
| 2026-05-04 13:20 | 44.90966 | 1.05172 | 29898 ft | 479 kts | 342° |
| 2026-05-04 13:20 | 44.94189 | 1.03898 | 30369 ft | 483 kts | 341° |
| 2026-05-04 13:21 | 44.97436 | 1.02614 | 30825 ft | 487 kts | 341° |
| 2026-05-04 13:21 | 45.00718 | 1.01314 | 31280 ft | 492 kts | 341° |
| 2026-05-04 13:21 | 45.04025 | 1.00003 | 31722 ft | 496 kts | 341° |
| 2026-05-04 13:21 | 45.07331 | 0.98690 | 32185 ft | 499 kts | 341° |
| 2026-05-04 13:22 | 45.10690 | 0.97356 | 32624 ft | 504 kts | 340° |
| 2026-05-04 13:22 | 45.14079 | 0.96045 | 33027 ft | 508 kts | 342° |
| 2026-05-04 13:22 | 45.17547 | 0.94926 | 33437 ft | 513 kts | 344° |
| 2026-05-04 13:22 | 45.21065 | 0.93927 | 33878 ft | 517 kts | 345° |
| 2026-05-04 13:23 | 45.24608 | 0.92960 | 34245 ft | 519 kts | 345° |
| 2026-05-04 13:23 | 45.28168 | 0.91980 | 34600 ft | 521 kts | 345° |
| 2026-05-04 13:23 | 45.31720 | 0.90977 | 35088 ft | 520 kts | 345° |
| 2026-05-04 13:23 | 45.35221 | 0.89965 | 35610 ft | 518 kts | 345° |
| 2026-05-04 13:24 | 45.38755 | 0.88925 | 36115 ft | 517 kts | 345° |
| 2026-05-04 13:24 | 45.42283 | 0.87873 | 36628 ft | 516 kts | 345° |
| 2026-05-04 13:24 | 45.45794 | 0.86820 | 37114 ft | 515 kts | 345° |
| 2026-05-04 13:25 | 45.52809 | 0.84710 | 38074 ft | 514 kts | 345° |
| 2026-05-04 13:25 | 45.56314 | 0.83654 | 38541 ft | 513 kts | 345° |
| 2026-05-04 13:25 | 45.59768 | 0.82614 | 38900 ft | 513 kts | 345° |
| 2026-05-04 13:25 | 45.63266 | 0.81559 | 39258 ft | 512 kts | 345° |
| 2026-05-04 13:26 | 45.66754 | 0.80507 | 39612 ft | 511 kts | 345° |
| 2026-05-04 13:26 | 45.70244 | 0.79454 | 39860 ft | 512 kts | 345° |
| 2026-05-04 13:26 | 45.77230 | 0.77339 | 39928 ft | 511 kts | 345° |
| 2026-05-04 13:27 | 45.84160 | 0.75237 | 39918 ft | 511 kts | 345° |
| 2026-05-04 13:27 | 45.91142 | 0.73114 | 39920 ft | 512 kts | 345° |
| 2026-05-04 13:28 | 45.98113 | 0.70989 | 39925 ft | 512 kts | 345° |
| 2026-05-04 13:28 | 46.05038 | 0.68872 | 39919 ft | 512 kts | 345° |
| 2026-05-04 13:29 | 46.12020 | 0.66732 | 39920 ft | 512 kts | 345° |
| 2026-05-04 13:29 | 46.19006 | 0.64585 | 39918 ft | 512 kts | 345° |
| 2026-05-04 13:30 | 46.25931 | 0.62453 | 39928 ft | 512 kts | 345° |
| 2026-05-04 13:30 | 46.32908 | 0.60298 | 39921 ft | 512 kts | 345° |
| 2026-05-04 13:31 | 46.39875 | 0.58141 | 39931 ft | 512 kts | 345° |
| 2026-05-04 13:31 | 46.46860 | 0.55971 | 39932 ft | 512 kts | 345° |
| 2026-05-04 13:32 | 46.53868 | 0.54078 | 39941 ft | 514 kts | 353° |
| 2026-05-04 13:32 | 46.60973 | 0.54726 | 39939 ft | 517 kts | 9° |
| 2026-05-04 13:33 | 46.68031 | 0.56868 | 39931 ft | 518 kts | 12° |
| 2026-05-04 13:33 | 46.75069 | 0.59250 | 39929 ft | 518 kts | 12° |
| 2026-05-04 13:34 | 46.82094 | 0.61629 | 39935 ft | 518 kts | 12° |
| 2026-05-04 13:34 | 46.89134 | 0.63981 | 39927 ft | 518 kts | 12° |
| 2026-05-04 13:35 | 46.99650 | 0.67479 | 39922 ft | 518 kts | 12° |
| 2026-05-04 13:36 | 47.06735 | 0.69291 | 39927 ft | 516 kts | 4° |
| 2026-05-04 13:36 | 47.13894 | 0.70167 | 39924 ft | 516 kts | 2° |
| 2026-05-04 13:37 | 47.21061 | 0.70902 | 39935 ft | 515 kts | 2° |
| 2026-05-04 13:37 | 47.28182 | 0.71621 | 39932 ft | 515 kts | 2° |
| 2026-05-04 13:38 | 47.35300 | 0.72357 | 39936 ft | 515 kts | 2° |
| 2026-05-04 13:38 | 47.42459 | 0.73109 | 39937 ft | 515 kts | 2° |
| 2026-05-04 13:39 | 47.49597 | 0.74246 | 39942 ft | 517 kts | 11° |
| 2026-05-04 13:39 | 47.56523 | 0.77153 | 39937 ft | 517 kts | 17° |
| 2026-05-04 13:40 | 47.63321 | 0.80507 | 39935 ft | 517 kts | 18° |
| 2026-05-04 13:40 | 47.70146 | 0.83951 | 39927 ft | 517 kts | 18° |
| 2026-05-04 13:41 | 47.76932 | 0.87343 | 39931 ft | 517 kts | 18° |
| 2026-05-04 13:41 | 47.83752 | 0.90732 | 39937 ft | 516 kts | 18° |
| 2026-05-04 13:42 | 47.93963 | 0.95861 | 39939 ft | 515 kts | 18° |
| 2026-05-04 13:42 | 48.00764 | 0.99320 | 39944 ft | 515 kts | 18° |
| 2026-05-04 13:43 | 48.07522 | 1.02759 | 39943 ft | 515 kts | 18° |
| 2026-05-04 13:43 | 48.14309 | 1.06218 | 39941 ft | 515 kts | 18° |
| 2026-05-04 13:44 | 48.21110 | 1.09691 | 39944 ft | 515 kts | 18° |
| 2026-05-04 13:44 | 48.27905 | 1.13153 | 39948 ft | 515 kts | 18° |
| 2026-05-04 13:45 | 48.34711 | 1.16626 | 39950 ft | 516 kts | 18° |
| 2026-05-04 13:45 | 48.41459 | 1.20081 | 39949 ft | 515 kts | 18° |
| 2026-05-04 13:46 | 48.48262 | 1.23574 | 39952 ft | 515 kts | 18° |
| 2026-05-04 13:46 | 48.55067 | 1.27078 | 39950 ft | 515 kts | 18° |
| 2026-05-04 13:47 | 48.61828 | 1.30510 | 39940 ft | 515 kts | 17° |
| 2026-05-04 13:47 | 48.68644 | 1.33933 | 39950 ft | 514 kts | 17° |
| 2026-05-04 13:48 | 48.75431 | 1.37356 | 39956 ft | 513 kts | 17° |
| 2026-05-04 13:48 | 48.82221 | 1.40798 | 39958 ft | 513 kts | 18° |
| 2026-05-04 13:49 | 48.88999 | 1.44246 | 39958 ft | 513 kts | 18° |
| 2026-05-04 13:49 | 48.95638 | 1.48289 | 39962 ft | 514 kts | 29° |
| 2026-05-04 13:50 | 49.01208 | 1.54950 | 39963 ft | 514 kts | 46° |
| 2026-05-04 13:50 | 49.06064 | 1.62964 | 39956 ft | 514 kts | 49° |
| 2026-05-04 13:51 | 49.10789 | 1.71178 | 39955 ft | 512 kts | 49° |
| 2026-05-04 13:51 | 49.15454 | 1.79303 | 39949 ft | 511 kts | 49° |
| 2026-05-04 13:52 | 49.22515 | 1.91541 | 39959 ft | 512 kts | 49° |
| 2026-05-04 13:53 | 49.27236 | 1.99731 | 39964 ft | 512 kts | 49° |
| 2026-05-04 13:53 | 49.31915 | 2.07876 | 39963 ft | 511 kts | 49° |
| 2026-05-04 13:54 | 49.38953 | 2.20175 | 39966 ft | 511 kts | 49° |
| 2026-05-04 13:55 | 49.45986 | 2.32531 | 39966 ft | 512 kts | 49° |
| 2026-05-04 13:55 | 49.52996 | 2.44879 | 39960 ft | 512 kts | 48° |
| 2026-05-04 13:56 | 49.58432 | 2.51896 | 39955 ft | 511 kts | 34° |
| 2026-05-04 13:57 | 49.67387 | 2.60739 | 39956 ft | 511 kts | 32° |
| 2026-05-04 13:58 | 49.79441 | 2.72370 | 39952 ft | 510 kts | 32° |
| 2026-05-04 13:58 | 49.88463 | 2.81184 | 39954 ft | 511 kts | 32° |
| 2026-05-04 13:59 | 49.94487 | 2.87097 | 39958 ft | 511 kts | 32° |
| 2026-05-04 14:00 | 50.02491 | 2.94978 | 39957 ft | 511 kts | 32° |
| 2026-05-04 14:00 | 50.11511 | 3.03897 | 39965 ft | 511 kts | 32° |
| 2026-05-04 14:01 | 50.17476 | 3.09817 | 39964 ft | 511 kts | 32° |
| 2026-05-04 14:02 | 50.26766 | 3.17883 | 39968 ft | 509 kts | 24° |
| 2026-05-04 14:02 | 50.33232 | 3.22488 | 39967 ft | 509 kts | 23° |
| 2026-05-04 14:03 | 50.39659 | 3.26981 | 39968 ft | 509 kts | 23° |
| 2026-05-04 14:03 | 50.46081 | 3.31704 | 39962 ft | 509 kts | 26° |
| 2026-05-04 14:04 | 50.55602 | 3.39157 | 39963 ft | 509 kts | 24° |
| 2026-05-04 14:04 | 50.62048 | 3.43579 | 39968 ft | 508 kts | 22° |
| 2026-05-04 14:05 | 50.71807 | 3.50164 | 39966 ft | 508 kts | 23° |
| 2026-05-04 14:06 | 50.78263 | 3.54617 | 39965 ft | 508 kts | 23° |
| 2026-05-04 14:06 | 50.84756 | 3.59135 | 39963 ft | 508 kts | 23° |
| 2026-05-04 14:07 | 50.91233 | 3.63658 | 39966 ft | 508 kts | 23° |
| 2026-05-04 14:07 | 50.97653 | 3.68215 | 39966 ft | 508 kts | 24° |
| 2026-05-04 14:08 | 51.04106 | 3.72881 | 39975 ft | 508 kts | 24° |
| 2026-05-04 14:08 | 51.10511 | 3.77520 | 39974 ft | 508 kts | 24° |
| 2026-05-04 14:09 | 51.20184 | 3.84529 | 39975 ft | 509 kts | 24° |
| 2026-05-04 14:10 | 51.29876 | 3.91581 | 39982 ft | 509 kts | 24° |
| 2026-05-04 14:10 | 51.36281 | 3.96282 | 39975 ft | 509 kts | 24° |
| 2026-05-04 14:11 | 51.42734 | 4.01032 | 39971 ft | 509 kts | 24° |
| 2026-05-04 14:11 | 51.52401 | 4.08162 | 39976 ft | 509 kts | 24° |
| 2026-05-04 14:12 | 51.58805 | 4.12908 | 39972 ft | 510 kts | 24° |
| 2026-05-04 14:13 | 51.68483 | 4.20113 | 39974 ft | 510 kts | 24° |
| 2026-05-04 14:13 | 51.74922 | 4.24924 | 39977 ft | 510 kts | 24° |
| 2026-05-04 14:14 | 51.81329 | 4.29728 | 39973 ft | 510 kts | 24° |
| 2026-05-04 14:14 | 51.91010 | 4.37023 | 39966 ft | 510 kts | 24° |
| 2026-05-04 14:15 | 52.03858 | 4.46757 | 39983 ft | 512 kts | 24° |
| 2026-05-04 14:16 | 52.13556 | 4.54145 | 39982 ft | 512 kts | 24° |
| 2026-05-04 14:17 | 52.23190 | 4.61519 | 39983 ft | 512 kts | 24° |
| 2026-05-04 14:18 | 52.32895 | 4.68976 | 39995 ft | 512 kts | 24° |
| 2026-05-04 14:19 | 52.45785 | 4.78952 | 39995 ft | 511 kts | 24° |
| 2026-05-04 14:19 | 52.52084 | 4.84355 | 39989 ft | 511 kts | 33° |
| 2026-05-04 14:20 | 52.57272 | 4.92181 | 39990 ft | 511 kts | 49° |
| 2026-05-04 14:20 | 52.61784 | 5.01265 | 39975 ft | 512 kts | 52° |
| 2026-05-04 14:21 | 52.68368 | 5.15219 | 39990 ft | 513 kts | 52° |
| 2026-05-04 14:21 | 52.72727 | 5.24438 | 39986 ft | 512 kts | 51° |
| 2026-05-04 14:22 | 52.77111 | 5.33692 | 39985 ft | 511 kts | 51° |
| 2026-05-04 14:22 | 52.81494 | 5.42958 | 39986 ft | 511 kts | 52° |
| 2026-05-04 14:23 | 52.88043 | 5.56924 | 39996 ft | 511 kts | 52° |
| 2026-05-04 14:24 | 52.92400 | 5.66253 | 40000 ft | 512 kts | 52° |
| 2026-05-04 14:24 | 52.96735 | 5.75566 | 40005 ft | 512 kts | 52° |
| 2026-05-04 14:25 | 53.01110 | 5.84995 | 40011 ft | 512 kts | 52° |
| 2026-05-04 14:25 | 53.07593 | 5.99034 | 40011 ft | 512 kts | 52° |
| 2026-05-04 14:26 | 53.11922 | 6.08446 | 40018 ft | 512 kts | 52° |
| 2026-05-04 14:26 | 53.16245 | 6.17884 | 40001 ft | 512 kts | 52° |
| 2026-05-04 14:27 | 53.20538 | 6.27306 | 40007 ft | 513 kts | 52° |
| 2026-05-04 14:27 | 53.24857 | 6.36816 | 40000 ft | 514 kts | 52° |
| 2026-05-04 14:28 | 53.29168 | 6.46342 | 40003 ft | 514 kts | 52° |
| 2026-05-04 14:28 | 53.33493 | 6.55893 | 40002 ft | 514 kts | 51° |
| 2026-05-04 14:29 | 53.43659 | 6.72544 | 40007 ft | 512 kts | 41° |
| 2026-05-04 14:30 | 53.48927 | 6.80634 | 40007 ft | 513 kts | 41° |
| 2026-05-04 14:31 | 53.56799 | 6.92782 | 40014 ft | 513 kts | 41° |
| 2026-05-04 14:32 | 53.66910 | 7.09727 | 40008 ft | 514 kts | 44° |
| 2026-05-04 14:32 | 53.71943 | 7.18331 | 40011 ft | 514 kts | 44° |
| 2026-05-04 14:33 | 53.76988 | 7.26907 | 40014 ft | 514 kts | 44° |
| 2026-05-04 14:33 | 53.82009 | 7.35445 | 40017 ft | 514 kts | 44° |
| 2026-05-04 14:34 | 53.87077 | 7.44093 | 40018 ft | 514 kts | 44° |
| 2026-05-04 14:34 | 53.92074 | 7.52653 | 40013 ft | 514 kts | 44° |
| 2026-05-04 14:35 | 53.97107 | 7.61310 | 40011 ft | 514 kts | 44° |
| 2026-05-04 14:35 | 54.02124 | 7.69969 | 40008 ft | 514 kts | 44° |
| 2026-05-04 14:36 | 54.07134 | 7.78650 | 40008 ft | 514 kts | 44° |
| 2026-05-04 14:36 | 54.12108 | 7.87298 | 40008 ft | 513 kts | 44° |
| 2026-05-04 14:37 | 54.17108 | 7.96023 | 40010 ft | 513 kts | 44° |
| 2026-05-04 14:37 | 54.22104 | 8.04777 | 40010 ft | 514 kts | 44° |
| 2026-05-04 14:38 | 54.27095 | 8.13550 | 40011 ft | 514 kts | 44° |
| 2026-05-04 14:38 | 54.32051 | 8.22295 | 40012 ft | 514 kts | 44° |
| 2026-05-04 14:39 | 54.37022 | 8.31100 | 40012 ft | 514 kts | 44° |
| 2026-05-04 14:39 | 54.41997 | 8.39944 | 40013 ft | 514 kts | 44° |
| 2026-05-04 14:40 | 54.49445 | 8.53248 | 40014 ft | 514 kts | 44° |
| 2026-05-04 14:40 | 54.54372 | 8.62088 | 39997 ft | 514 kts | 44° |
| 2026-05-04 14:41 | 54.59319 | 8.70996 | 40004 ft | 515 kts | 45° |
| 2026-05-04 14:42 | 54.69206 | 8.88906 | 40015 ft | 515 kts | 44° |
| 2026-05-04 14:42 | 54.74140 | 8.97894 | 39998 ft | 515 kts | 45° |
| 2026-05-04 14:43 | 54.79082 | 9.06929 | 39997 ft | 516 kts | 45° |
| 2026-05-04 14:43 | 54.83975 | 9.15909 | 39992 ft | 515 kts | 45° |
| 2026-05-04 14:44 | 54.88866 | 9.25040 | 39991 ft | 516 kts | 46° |
| 2026-05-04 14:44 | 54.93598 | 9.34427 | 39986 ft | 517 kts | 47° |
| 2026-05-04 14:45 | 54.98266 | 9.43793 | 39990 ft | 517 kts | 47° |
| 2026-05-04 14:45 | 55.02981 | 9.53209 | 39988 ft | 517 kts | 47° |
| 2026-05-04 14:46 | 55.07722 | 9.62675 | 39992 ft | 517 kts | 47° |
| 2026-05-04 14:46 | 55.09857 | 9.67755 | 39779 ft | 517 kts | 58° |
| 2026-05-04 14:46 | 55.11438 | 9.73395 | 39559 ft | 520 kts | 69° |
| 2026-05-04 14:47 | 55.12552 | 9.78995 | 39215 ft | 514 kts | 71° |
| 2026-05-04 14:47 | 55.13621 | 9.84860 | 38565 ft | 514 kts | 72° |
| 2026-05-04 14:47 | 55.14687 | 9.90830 | 37689 ft | 516 kts | 72° |
| 2026-05-04 14:47 | 55.15751 | 9.96818 | 36906 ft | 515 kts | 72° |
| 2026-05-04 14:48 | 55.16814 | 10.02823 | 36104 ft | 515 kts | 72° |
| 2026-05-04 14:48 | 55.17874 | 10.08824 | 35253 ft | 516 kts | 72° |
| 2026-05-04 14:48 | 55.18931 | 10.14825 | 34336 ft | 518 kts | 72° |
| 2026-05-04 14:48 | 55.19633 | 10.18823 | 33630 ft | 520 kts | 72° |
| 2026-05-04 14:49 | 55.20698 | 10.24906 | 32537 ft | 521 kts | 72° |
| 2026-05-04 14:49 | 55.21762 | 10.30999 | 31461 ft | 522 kts | 72° |
| 2026-05-04 14:49 | 55.22825 | 10.37109 | 30347 ft | 524 kts | 72° |
| 2026-05-04 14:49 | 55.23875 | 10.43165 | 29046 ft | 526 kts | 72° |
| 2026-05-04 14:50 | 55.24913 | 10.49177 | 28203 ft | 504 kts | 72° |
| 2026-05-04 14:50 | 55.25917 | 10.55010 | 27494 ft | 497 kts | 72° |
| 2026-05-04 14:50 | 55.26910 | 10.60794 | 26733 ft | 492 kts | 72° |
| 2026-05-04 14:50 | 55.27887 | 10.66496 | 25995 ft | 487 kts | 72° |
| 2026-05-04 14:51 | 55.28862 | 10.72155 | 25280 ft | 482 kts | 72° |
| 2026-05-04 14:51 | 55.29813 | 10.77704 | 24545 ft | 478 kts | 72° |
| 2026-05-04 14:51 | 55.30767 | 10.83283 | 23827 ft | 474 kts | 72° |
| 2026-05-04 14:51 | 55.31708 | 10.88812 | 22985 ft | 471 kts | 72° |
| 2026-05-04 14:52 | 55.32640 | 10.94299 | 22218 ft | 466 kts | 72° |
| 2026-05-04 14:52 | 55.33559 | 10.99716 | 21483 ft | 460 kts | 72° |
| 2026-05-04 14:52 | 55.34454 | 11.05084 | 20748 ft | 455 kts | 72° |
| 2026-05-04 14:52 | 55.35335 | 11.10412 | 20015 ft | 452 kts | 73° |
| 2026-05-04 14:53 | 55.36209 | 11.15701 | 19258 ft | 449 kts | 73° |
| 2026-05-04 14:53 | 55.37077 | 11.20970 | 18509 ft | 446 kts | 73° |
| 2026-05-04 14:53 | 55.37936 | 11.26190 | 17825 ft | 441 kts | 73° |
| 2026-05-04 14:53 | 55.38765 | 11.31251 | 17685 ft | 421 kts | 73° |
| 2026-05-04 14:54 | 55.39555 | 11.36088 | 17571 ft | 401 kts | 73° |
| 2026-05-04 14:54 | 55.40299 | 11.40652 | 17463 ft | 384 kts | 73° |
| 2026-05-04 14:54 | 55.41017 | 11.45067 | 17343 ft | 368 kts | 73° |
| 2026-05-04 14:54 | 55.41706 | 11.49316 | 17202 ft | 354 kts | 73° |
| 2026-05-04 14:55 | 55.42372 | 11.53426 | 17042 ft | 344 kts | 73° |
| 2026-05-04 14:55 | 55.43021 | 11.57447 | 16787 ft | 338 kts | 73° |
| 2026-05-04 14:55 | 55.43745 | 11.61404 | 16335 ft | 338 kts | 65° |
| 2026-05-04 14:55 | 55.45026 | 11.64801 | 15960 ft | 331 kts | 42° |
| 2026-05-04 14:56 | 55.46668 | 11.67525 | 15582 ft | 327 kts | 37° |
| 2026-05-04 14:56 | 55.48380 | 11.70161 | 15196 ft | 326 kts | 37° |
| 2026-05-04 14:56 | 55.50086 | 11.72793 | 14825 ft | 325 kts | 37° |
| 2026-05-04 14:56 | 55.51785 | 11.75433 | 14441 ft | 324 kts | 37° |
| 2026-05-04 14:57 | 55.53476 | 11.78072 | 14054 ft | 324 kts | 37° |
| 2026-05-04 14:57 | 55.55159 | 11.80708 | 13678 ft | 323 kts | 37° |
| 2026-05-04 14:57 | 55.56834 | 11.83337 | 13265 ft | 321 kts | 37° |
| 2026-05-04 14:57 | 55.58500 | 11.85957 | 12894 ft | 318 kts | 38° |
| 2026-05-04 14:58 | 55.60146 | 11.88550 | 12532 ft | 316 kts | 38° |
| 2026-05-04 14:58 | 55.61777 | 11.91123 | 12156 ft | 313 kts | 38° |
| 2026-05-04 14:58 | 55.63398 | 11.93680 | 11801 ft | 311 kts | 38° |
| 2026-05-04 14:58 | 55.65026 | 11.96245 | 11482 ft | 314 kts | 38° |
| 2026-05-04 14:59 | 55.66636 | 11.98795 | 11152 ft | 314 kts | 38° |
| 2026-05-04 14:59 | 55.68255 | 12.01364 | 10820 ft | 312 kts | 38° |
| 2026-05-04 14:59 | 55.71461 | 12.06468 | 10178 ft | 308 kts | 38° |
| 2026-05-04 15:00 | 55.72826 | 12.09401 | 9832 ft | 313 kts | 59° |
| 2026-05-04 15:00 | 55.73388 | 12.13104 | 9491 ft | 313 kts | 89° |
| 2026-05-04 15:00 | 55.73254 | 12.16953 | 9153 ft | 312 kts | 97° |
| 2026-05-04 15:01 | 55.72738 | 12.24586 | 8483 ft | 309 kts | 97° |
| 2026-05-04 15:01 | 55.72491 | 12.28367 | 8161 ft | 307 kts | 97° |
| 2026-05-04 15:01 | 55.72255 | 12.32072 | 7836 ft | 306 kts | 96° |
| 2026-05-04 15:01 | 55.72019 | 12.35816 | 7519 ft | 304 kts | 97° |
| 2026-05-04 15:02 | 55.71782 | 12.39535 | 7192 ft | 302 kts | 97° |
| 2026-05-04 15:02 | 55.71546 | 12.43235 | 6914 ft | 301 kts | 97° |
| 2026-05-04 15:02 | 55.71311 | 12.46926 | 6606 ft | 301 kts | 97° |
| 2026-05-04 15:02 | 55.71240 | 12.50637 | 6501 ft | 301 kts | 82° |
| 2026-05-04 15:03 | 55.71869 | 12.54129 | 6376 ft | 293 kts | 63° |
| 2026-05-04 15:03 | 55.72778 | 12.57362 | 6036 ft | 293 kts | 60° |
| 2026-05-04 15:03 | 55.73712 | 12.60534 | 5637 ft | 293 kts | 59° |
| 2026-05-04 15:03 | 55.74706 | 12.63675 | 5252 ft | 289 kts | 52° |
| 2026-05-04 15:04 | 55.76048 | 12.66261 | 4877 ft | 281 kts | 38° |
| 2026-05-04 15:04 | 55.77506 | 12.68539 | 4477 ft | 276 kts | 37° |
| 2026-05-04 15:04 | 55.78945 | 12.70744 | 4096 ft | 270 kts | 37° |
| 2026-05-04 15:04 | 55.80353 | 12.72912 | 3721 ft | 265 kts | 37° |
| 2026-05-04 15:05 | 55.81702 | 12.75123 | 3344 ft | 262 kts | 44° |
| 2026-05-04 15:05 | 55.82503 | 12.77962 | 2960 ft | 263 kts | 78° |
| 2026-05-04 15:05 | 55.82285 | 12.81135 | 2580 ft | 261 kts | 115° |
| 2026-05-04 15:05 | 55.81117 | 12.83487 | 2205 ft | 252 kts | 153° |
| 2026-05-04 15:06 | 55.79495 | 12.84174 | 2012 ft | 232 kts | 185° |
| 2026-05-04 15:06 | 55.77945 | 12.84359 | 2003 ft | 216 kts | 171° |
| 2026-05-04 15:06 | 55.76567 | 12.85114 | 2025 ft | 197 kts | 164° |
| 2026-05-04 15:07 | 55.74283 | 12.84709 | 2007 ft | 150 kts | 213° |
| 2026-05-04 15:07 | 55.73467 | 12.83670 | 2000 ft | 145 kts | 227° |
| 2026-05-04 15:07 | 55.72697 | 12.82492 | 1995 ft | 147 kts | 226° |
| 2026-05-04 15:07 | 55.71925 | 12.81309 | 1993 ft | 146 kts | 228° |
| 2026-05-04 15:08 | 55.71164 | 12.80126 | 1991 ft | 145 kts | 227° |
| 2026-05-04 15:08 | 55.70399 | 12.78947 | 1991 ft | 146 kts | 227° |
| 2026-05-04 15:08 | 55.69624 | 12.77751 | 1922 ft | 148 kts | 226° |
| 2026-05-04 15:08 | 55.68870 | 12.76591 | 1752 ft | 142 kts | 228° |
| 2026-05-04 15:09 | 55.68130 | 12.75433 | 1527 ft | 142 kts | 226° |
| 2026-05-04 15:09 | 55.67381 | 12.74269 | 1344 ft | 143 kts | 226° |
| 2026-05-04 15:09 | 55.66630 | 12.73106 | 1137 ft | 142 kts | 228° |
| 2026-05-04 15:10 | 55.65155 | 12.70825 | 686 ft | 140 kts | 227° |
| 2026-05-04 15:10 | 55.64411 | 12.69674 | 534 ft | 143 kts | 225° |
| 2026-05-04 15:10 | 55.62936 | 12.67371 | 140 ft | 142 kts | 226° |
| 2026-05-04 15:11 | 55.62187 | 12.66238 | 31 ft | 141 kts | 226° |
| 2026-05-04 15:11 | 55.61591 | 12.65285 | 25 ft | 77 kts | 221° |
| 2026-05-04 15:11 | 55.61405 | 12.64997 | 29 ft | 1 kts | 221° |
| 2026-05-04 15:11 | 55.61364 | 12.64930 | 30 ft | 22 kts | 223° |
| 2026-05-04 15:12 | 55.61262 | 12.64663 | 28 ft | 25 kts | 248° |
| 2026-05-04 15:12 | 55.61207 | 12.64380 | 26 ft | 9 kts | 251° |
| 2026-05-04 15:12 | 55.61202 | 12.64354 | 27 ft | 5 kts | 251° |
| 2026-05-04 15:12 | 55.61187 | 12.64255 | 26 ft | 11 kts | 263° |
| 2026-05-04 15:13 | 55.61220 | 12.64124 | 28 ft | 13 kts | 326° |
| 2026-05-04 15:13 | 55.61314 | 12.64153 | 26 ft | 16 kts | 31° |
| 2026-05-04 15:13 | 55.61429 | 12.64282 | 28 ft | 23 kts | 32° |
| 2026-05-04 15:13 | 55.61578 | 12.64452 | 28 ft | 28 kts | 33° |
| 2026-05-04 15:14 | 55.61759 | 12.64662 | 28 ft | 33 kts | 33° |
| 2026-05-04 15:14 | 55.61901 | 12.64824 | 28 ft | 20 kts | 33° |
| 2026-05-04 15:14 | 55.62036 | 12.64980 | 27 ft | 26 kts | 35° |
| 2026-05-04 15:14 | 55.62165 | 12.65132 | 28 ft | 15 kts | 32° |
| 2026-05-04 15:15 | 55.62260 | 12.65206 | 27 ft | 9 kts | 30° |
| 2026-05-04 15:15 | 55.62290 | 12.65341 | 26 ft | 13 kts | 83° |
| 2026-05-04 15:15 | 55.62296 | 12.65535 | 26 ft | 19 kts | 88° |
| 2026-05-04 15:16 | 55.62304 | 12.65933 | 27 ft | 18 kts | 76° |
| 2026-05-04 15:16 | 55.62392 | 12.66114 | 28 ft | 22 kts | 41° |
| 2026-05-04 15:16 | 55.62527 | 12.66162 | 28 ft | 11 kts | 329° |
| 2026-05-04 15:17 | 55.62604 | 12.66138 | 27 ft | 12 kts | 4° |
| 2026-05-04 15:17 | 55.62741 | 12.66312 | 28 ft | 9 kts | 41° |
| 2026-05-04 15:17 | 55.62758 | 12.66342 | 28 ft | 1 kts | 50° |
| 2026-05-04 15:18 | 55.62759 | 12.66404 | 27 ft | 6 kts | 110° |
| 2026-05-04 15:18 | 55.62743 | 12.66435 | 28 ft | 0 kts | 130° |
| 2026-05-04 15:18 | 55.62736 | 12.66448 | 28 ft | 4 kts | 131° |
| 2026-05-04 15:19 | 55.62728 | 12.66465 | 27 ft | 0 kts | 131° |